sensor_id;sensor_type;location;lat;lon;timestamp;P1;durP1;ratioP1;P2;durP2;ratioP2
24439;SDS011;12618;54.386;18.394;2022-09-20T00:02:08;2.95;;;1.40;;
24439;SDS011;12618;54.386;18.394;2022-09-20T00:04:39;2.20;;;1.40;;
24439;SDS011;12618;54.386;18.394;2022-09-20T00:07:09;3.45;;;2.10;;
24439;SDS011;12618;54.386;18.394;2022-09-20T00:09:40;4.67;;;2.35;;
24439;SDS011;12618;54.386;18.394;2022-09-20T00:12:11;2.98;;;1.75;;
24439;SDS011;12618;54.386;18.394;2022-09-20T00:14:41;4.40;;;1.80;;
24439;SDS011;12618;54.386;18.394;2022-09-20T00:17:12;2.85;;;1.87;;
24439;SDS011;12618;54.386;18.394;2022-09-20T00:19:42;2.45;;;1.90;;
24439;SDS011;12618;54.386;18.394;2022-09-20T00:22:13;3.20;;;2.10;;
24439;SDS011;12618;54.386;18.394;2022-09-20T00:24:44;5.97;;;2.85;;
24439;SDS011;12618;54.386;18.394;2022-09-20T00:27:16;4.33;;;2.60;;
24439;SDS011;12618;54.386;18.394;2022-09-20T00:29:46;4.70;;;2.75;;
24439;SDS011;12618;54.386;18.394;2022-09-20T00:32:17;3.98;;;2.58;;
24439;SDS011;12618;54.386;18.394;2022-09-20T00:34:48;3.45;;;2.40;;
24439;SDS011;12618;54.386;18.394;2022-09-20T00:37:38;3.98;;;2.75;;
24439;SDS011;12618;54.386;18.394;2022-09-20T00:40:11;4.20;;;3.30;;
24439;SDS011;12618;54.386;18.394;2022-09-20T00:42:42;3.92;;;3.17;;
24439;SDS011;12618;54.386;18.394;2022-09-20T00:48:08;5.22;;;3.20;;
24439;SDS011;12618;54.386;18.394;2022-09-20T00:50:44;7.12;;;3.98;;
24439;SDS011;12618;54.386;18.394;2022-09-20T00:53:22;4.35;;;3.62;;
24439;SDS011;12618;54.386;18.394;2022-09-20T00:58:28;4.97;;;3.52;;
24439;SDS011;12618;54.386;18.394;2022-09-20T01:01:00;4.95;;;3.22;;
24439;SDS011;12618;54.386;18.394;2022-09-20T01:03:30;5.92;;;3.25;;
24439;SDS011;12618;54.386;18.394;2022-09-20T01:06:05;5.25;;;3.27;;
24439;SDS011;12618;54.386;18.394;2022-09-20T01:08:35;5.75;;;3.92;;
24439;SDS011;12618;54.386;18.394;2022-09-20T01:11:06;8.33;;;5.10;;
24439;SDS011;12618;54.386;18.394;2022-09-20T01:13:36;9.00;;;6.05;;
24439;SDS011;12618;54.386;18.394;2022-09-20T01:16:07;10.00;;;6.42;;
24439;SDS011;12618;54.386;18.394;2022-09-20T01:18:38;11.12;;;7.45;;
24439;SDS011;12618;54.386;18.394;2022-09-20T01:21:09;12.55;;;7.58;;
24439;SDS011;12618;54.386;18.394;2022-09-20T01:24:01;13.90;;;8.93;;
24439;SDS011;12618;54.386;18.394;2022-09-20T01:29:02;17.20;;;8.80;;
24439;SDS011;12618;54.386;18.394;2022-09-20T01:31:33;14.30;;;7.80;;
24439;SDS011;12618;54.386;18.394;2022-09-20T01:34:09;7.78;;;4.65;;
24439;SDS011;12618;54.386;18.394;2022-09-20T01:36:43;6.00;;;3.95;;
24439;SDS011;12618;54.386;18.394;2022-09-20T01:41:51;4.95;;;3.35;;
24439;SDS011;12618;54.386;18.394;2022-09-20T01:50:12;4.80;;;2.98;;
24439;SDS011;12618;54.386;18.394;2022-09-20T01:55:28;9.65;;;5.50;;
24439;SDS011;12618;54.386;18.394;2022-09-20T02:06:17;7.15;;;4.30;;
24439;SDS011;12618;54.386;18.394;2022-09-20T02:08:47;4.42;;;2.98;;
24439;SDS011;12618;54.386;18.394;2022-09-20T02:11:15;2.25;;;1.90;;
24439;SDS011;12618;54.386;18.394;2022-09-20T02:14:12;2.67;;;2.00;;
24439;SDS011;12618;54.386;18.394;2022-09-20T02:35:17;2.80;;;1.80;;
24439;SDS011;12618;54.386;18.394;2022-09-20T02:40:23;4.15;;;2.12;;
24439;SDS011;12618;54.386;18.394;2022-09-20T02:42:57;2.72;;;2.10;;
24439;SDS011;12618;54.386;18.394;2022-09-20T02:48:17;3.98;;;2.40;;
24439;SDS011;12618;54.386;18.394;2022-09-20T02:50:58;4.47;;;2.15;;
24439;SDS011;12618;54.386;18.394;2022-09-20T02:53:45;2.50;;;1.75;;
24439;SDS011;12618;54.386;18.394;2022-09-20T03:01:34;3.58;;;1.90;;
24439;SDS011;12618;54.386;18.394;2022-09-20T03:14:36;2.12;;;1.30;;
24439;SDS011;12618;54.386;18.394;2022-09-20T03:22:52;2.58;;;1.47;;
24439;SDS011;12618;54.386;18.394;2022-09-20T03:33:12;3.20;;;1.50;;
24439;SDS011;12618;54.386;18.394;2022-09-20T03:35:50;3.37;;;1.80;;
24439;SDS011;12618;54.386;18.394;2022-09-20T03:43:53;2.52;;;1.60;;
24439;SDS011;12618;54.386;18.394;2022-09-20T03:54:46;2.40;;;2.00;;
24439;SDS011;12618;54.386;18.394;2022-09-20T04:23:58;3.60;;;2.40;;
24439;SDS011;12618;54.386;18.394;2022-09-20T04:26:25;3.80;;;2.52;;
24439;SDS011;12618;54.386;18.394;2022-09-20T04:29:24;3.42;;;2.25;;
24439;SDS011;12618;54.386;18.394;2022-09-20T04:31:51;4.05;;;2.20;;
24439;SDS011;12618;54.386;18.394;2022-09-20T04:34:27;3.45;;;2.00;;
24439;SDS011;12618;54.386;18.394;2022-09-20T04:36:56;4.40;;;2.08;;
24439;SDS011;12618;54.386;18.394;2022-09-20T04:53:12;4.95;;;1.82;;
24439;SDS011;12618;54.386;18.394;2022-09-20T04:55:58;3.60;;;1.80;;
24439;SDS011;12618;54.386;18.394;2022-09-20T04:58:31;1.95;;;1.67;;
24439;SDS011;12618;54.386;18.394;2022-09-20T05:01:23;3.98;;;2.02;;
24439;SDS011;12618;54.386;18.394;2022-09-20T05:04:00;3.25;;;1.98;;
24439;SDS011;12618;54.386;18.394;2022-09-20T05:11:54;2.50;;;2.10;;
24439;SDS011;12618;54.386;18.394;2022-09-20T05:14:44;2.45;;;1.90;;
24439;SDS011;12618;54.386;18.394;2022-09-20T05:17:22;4.42;;;1.92;;
24439;SDS011;12618;54.386;18.394;2022-09-20T05:22:44;3.17;;;1.70;;
24439;SDS011;12618;54.386;18.394;2022-09-20T05:25:14;2.30;;;2.10;;
24439;SDS011;12618;54.386;18.394;2022-09-20T05:27:51;2.35;;;1.87;;
24439;SDS011;12618;54.386;18.394;2022-09-20T05:30:28;2.05;;;1.65;;
24439;SDS011;12618;54.386;18.394;2022-09-20T05:38:30;3.33;;;2.12;;
24439;SDS011;12618;54.386;18.394;2022-09-20T05:43:47;2.72;;;1.80;;
24439;SDS011;12618;54.386;18.394;2022-09-20T05:46:19;4.62;;;3.00;;
24439;SDS011;12618;54.386;18.394;2022-09-20T05:48:52;2.98;;;1.90;;
24439;SDS011;12618;54.386;18.394;2022-09-20T05:54:07;4.83;;;2.30;;
24439;SDS011;12618;54.386;18.394;2022-09-20T05:59:35;6.20;;;3.27;;
24439;SDS011;12618;54.386;18.394;2022-09-20T06:04:22;5.60;;;2.15;;
24439;SDS011;12618;54.386;18.394;2022-09-20T06:06:59;2.98;;;1.98;;
24439;SDS011;12618;54.386;18.394;2022-09-20T06:17:26;3.45;;;2.10;;
24439;SDS011;12618;54.386;18.394;2022-09-20T06:22:47;5.25;;;1.80;;
24439;SDS011;12618;54.386;18.394;2022-09-20T06:25:22;3.47;;;1.82;;
24439;SDS011;12618;54.386;18.394;2022-09-20T06:27:54;3.08;;;2.12;;
24439;SDS011;12618;54.386;18.394;2022-09-20T06:30:28;2.72;;;1.82;;
24439;SDS011;12618;54.386;18.394;2022-09-20T06:32:59;2.00;;;1.60;;
24439;SDS011;12618;54.386;18.394;2022-09-20T06:35:35;1.92;;;1.40;;
24439;SDS011;12618;54.386;18.394;2022-09-20T06:38:06;3.15;;;1.52;;
24439;SDS011;12618;54.386;18.394;2022-09-20T06:40:53;2.12;;;0.80;;
24439;SDS011;12618;54.386;18.394;2022-09-20T06:43:42;1.62;;;0.95;;
24439;SDS011;12618;54.386;18.394;2022-09-20T06:46:13;2.87;;;0.95;;
24439;SDS011;12618;54.386;18.394;2022-09-20T06:48:45;2.70;;;1.20;;
24439;SDS011;12618;54.386;18.394;2022-09-20T06:51:16;2.10;;;1.17;;
24439;SDS011;12618;54.386;18.394;2022-09-20T06:53:47;1.45;;;0.90;;
24439;SDS011;12618;54.386;18.394;2022-09-20T06:56:18;1.20;;;0.90;;
24439;SDS011;12618;54.386;18.394;2022-09-20T06:58:49;2.27;;;1.00;;
24439;SDS011;12618;54.386;18.394;2022-09-20T07:01:21;2.65;;;0.85;;
24439;SDS011;12618;54.386;18.394;2022-09-20T07:03:52;3.05;;;0.82;;
24439;SDS011;12618;54.386;18.394;2022-09-20T07:06:23;1.10;;;0.78;;
24439;SDS011;12618;54.386;18.394;2022-09-20T07:08:53;0.95;;;0.80;;
24439;SDS011;12618;54.386;18.394;2022-09-20T07:11:24;2.17;;;0.80;;
24439;SDS011;12618;54.386;18.394;2022-09-20T07:13:55;1.20;;;0.85;;
24439;SDS011;12618;54.386;18.394;2022-09-20T07:16:28;1.27;;;0.88;;
24439;SDS011;12618;54.386;18.394;2022-09-20T07:18:58;1.77;;;0.88;;
24439;SDS011;12618;54.386;18.394;2022-09-20T07:21:29;1.07;;;0.70;;
24439;SDS011;12618;54.386;18.394;2022-09-20T07:24:00;2.77;;;0.60;;
24439;SDS011;12618;54.386;18.394;2022-09-20T07:26:31;1.55;;;0.80;;
24439;SDS011;12618;54.386;18.394;2022-09-20T07:29:01;2.12;;;0.60;;
24439;SDS011;12618;54.386;18.394;2022-09-20T07:31:32;1.70;;;0.70;;
24439;SDS011;12618;54.386;18.394;2022-09-20T07:34:02;1.95;;;1.02;;
24439;SDS011;12618;54.386;18.394;2022-09-20T07:36:33;2.05;;;0.82;;
24439;SDS011;12618;54.386;18.394;2022-09-20T07:39:03;1.60;;;1.00;;
24439;SDS011;12618;54.386;18.394;2022-09-20T07:41:34;1.37;;;1.05;;
24439;SDS011;12618;54.386;18.394;2022-09-20T07:44:05;1.87;;;1.10;;
24439;SDS011;12618;54.386;18.394;2022-09-20T07:46:51;3.08;;;1.10;;
24439;SDS011;12618;54.386;18.394;2022-09-20T07:49:22;1.82;;;1.05;;
24439;SDS011;12618;54.386;18.394;2022-09-20T07:51:52;2.00;;;1.65;;
24439;SDS011;12618;54.386;18.394;2022-09-20T07:54:23;5.17;;;3.65;;
24439;SDS011;12618;54.386;18.394;2022-09-20T07:56:56;2.35;;;1.22;;
24439;SDS011;12618;54.386;18.394;2022-09-20T07:59:26;2.42;;;1.00;;
24439;SDS011;12618;54.386;18.394;2022-09-20T08:01:56;2.83;;;1.00;;
24439;SDS011;12618;54.386;18.394;2022-09-20T08:04:29;2.33;;;1.05;;
24439;SDS011;12618;54.386;18.394;2022-09-20T08:06:59;1.92;;;1.00;;
24439;SDS011;12618;54.386;18.394;2022-09-20T08:09:30;2.75;;;1.50;;
24439;SDS011;12618;54.386;18.394;2022-09-20T08:12:01;2.98;;;1.55;;
24439;SDS011;12618;54.386;18.394;2022-09-20T08:14:32;3.15;;;1.62;;
24439;SDS011;12618;54.386;18.394;2022-09-20T08:17:03;5.20;;;2.37;;
24439;SDS011;12618;54.386;18.394;2022-09-20T08:19:33;2.00;;;0.72;;
24439;SDS011;12618;54.386;18.394;2022-09-20T08:22:04;3.98;;;1.90;;
24439;SDS011;12618;54.386;18.394;2022-09-20T08:24:35;2.42;;;1.35;;
24439;SDS011;12618;54.386;18.394;2022-09-20T08:27:05;3.90;;;1.60;;
24439;SDS011;12618;54.386;18.394;2022-09-20T08:29:36;2.65;;;1.57;;
24439;SDS011;12618;54.386;18.394;2022-09-20T08:32:06;2.15;;;1.10;;
24439;SDS011;12618;54.386;18.394;2022-09-20T08:34:37;2.17;;;0.78;;
24439;SDS011;12618;54.386;18.394;2022-09-20T08:37:09;1.22;;;0.47;;
24439;SDS011;12618;54.386;18.394;2022-09-20T08:39:40;1.12;;;0.60;;
24439;SDS011;12618;54.386;18.394;2022-09-20T08:44:49;1.02;;;0.60;;
24439;SDS011;12618;54.386;18.394;2022-09-20T08:47:25;2.80;;;1.47;;
24439;SDS011;12618;54.386;18.394;2022-09-20T08:49:56;3.87;;;1.55;;
24439;SDS011;12618;54.386;18.394;2022-09-20T08:52:28;1.60;;;0.60;;
24439;SDS011;12618;54.386;18.394;2022-09-20T08:55:00;1.03;;;0.50;;
24439;SDS011;12618;54.386;18.394;2022-09-20T08:57:30;1.47;;;0.50;;
24439;SDS011;12618;54.386;18.394;2022-09-20T09:00:03;3.10;;;0.50;;
24439;SDS011;12618;54.386;18.394;2022-09-20T09:02:34;2.65;;;0.60;;
24439;SDS011;12618;54.386;18.394;2022-09-20T09:05:08;2.52;;;0.80;;
24439;SDS011;12618;54.386;18.394;2022-09-20T09:07:37;1.17;;;0.80;;
24439;SDS011;12618;54.386;18.394;2022-09-20T09:10:09;1.05;;;0.60;;
24439;SDS011;12618;54.386;18.394;2022-09-20T09:12:40;2.85;;;0.85;;
24439;SDS011;12618;54.386;18.394;2022-09-20T09:15:31;0.70;;;0.50;;
24439;SDS011;12618;54.386;18.394;2022-09-20T09:17:48;0.93;;;0.78;;
24439;SDS011;12618;54.386;18.394;2022-09-20T09:20:20;1.75;;;0.30;;
24439;SDS011;12618;54.386;18.394;2022-09-20T09:22:58;0.75;;;0.30;;
24439;SDS011;12618;54.386;18.394;2022-09-20T09:25:36;0.75;;;0.40;;
24439;SDS011;12618;54.386;18.394;2022-09-20T09:30:45;1.47;;;0.53;;
24439;SDS011;12618;54.386;18.394;2022-09-20T09:36:07;2.02;;;0.60;;
24439;SDS011;12618;54.386;18.394;2022-09-20T09:38:40;28.07;;;2.58;;
24439;SDS011;12618;54.386;18.394;2022-09-20T09:44:04;1.10;;;0.60;;
24439;SDS011;12618;54.386;18.394;2022-09-20T09:46:39;0.60;;;0.42;;
24439;SDS011;12618;54.386;18.394;2022-09-20T09:54:37;1.67;;;0.60;;
24439;SDS011;12618;54.386;18.394;2022-09-20T10:15:44;3.22;;;1.10;;
24439;SDS011;12618;54.386;18.394;2022-09-20T10:23:31;1.57;;;0.80;;
24439;SDS011;12618;54.386;18.394;2022-09-20T10:26:25;1.47;;;0.78;;
24439;SDS011;12618;54.386;18.394;2022-09-20T10:31:49;1.65;;;0.95;;
24439;SDS011;12618;54.386;18.394;2022-09-20T10:36:56;0.80;;;0.80;;
24439;SDS011;12618;54.386;18.394;2022-09-20T10:39:32;1.52;;;0.80;;
24439;SDS011;12618;54.386;18.394;2022-09-20T10:47:44;3.35;;;1.02;;
24439;SDS011;12618;54.386;18.394;2022-09-20T10:50:18;2.92;;;0.90;;
24439;SDS011;12618;54.386;18.394;2022-09-20T10:53:13;1.60;;;0.85;;
24439;SDS011;12618;54.386;18.394;2022-09-20T10:55:30;1.07;;;0.55;;
24439;SDS011;12618;54.386;18.394;2022-09-20T11:08:42;1.20;;;1.10;;
24439;SDS011;12618;54.386;18.394;2022-09-20T11:11:18;1.82;;;1.02;;
24439;SDS011;12618;54.386;18.394;2022-09-20T11:16:23;2.45;;;0.90;;
24439;SDS011;12618;54.386;18.394;2022-09-20T11:21:36;1.82;;;0.80;;
24439;SDS011;12618;54.386;18.394;2022-09-20T11:26:49;2.30;;;1.40;;
24439;SDS011;12618;54.386;18.394;2022-09-20T11:29:25;4.50;;;4.00;;
24439;SDS011;12618;54.386;18.394;2022-09-20T11:34:50;1.50;;;1.20;;
24439;SDS011;12618;54.386;18.394;2022-09-20T11:37:24;1.30;;;0.75;;
24439;SDS011;12618;54.386;18.394;2022-09-20T11:39:55;2.35;;;1.00;;
24439;SDS011;12618;54.386;18.394;2022-09-20T11:42:35;2.87;;;0.75;;
24439;SDS011;12618;54.386;18.394;2022-09-20T11:45:09;1.70;;;0.72;;
24439;SDS011;12618;54.386;18.394;2022-09-20T11:47:43;1.52;;;0.60;;
24439;SDS011;12618;54.386;18.394;2022-09-20T11:58:13;0.98;;;0.47;;
24439;SDS011;12618;54.386;18.394;2022-09-20T12:00:52;0.62;;;0.50;;
24439;SDS011;12618;54.386;18.394;2022-09-20T12:06:00;1.77;;;0.50;;
24439;SDS011;12618;54.386;18.394;2022-09-20T12:08:32;0.70;;;0.55;;
24439;SDS011;12618;54.386;18.394;2022-09-20T12:11:07;0.82;;;0.70;;
24439;SDS011;12618;54.386;18.394;2022-09-20T12:13:39;1.17;;;0.68;;
24439;SDS011;12618;54.386;18.394;2022-09-20T12:16:14;2.70;;;1.07;;
24439;SDS011;12618;54.386;18.394;2022-09-20T12:18:48;2.20;;;1.10;;
24439;SDS011;12618;54.386;18.394;2022-09-20T12:21:18;3.05;;;1.10;;
24439;SDS011;12618;54.386;18.394;2022-09-20T12:26:36;1.50;;;0.88;;
24439;SDS011;12618;54.386;18.394;2022-09-20T12:32:00;1.60;;;1.10;;
24439;SDS011;12618;54.386;18.394;2022-09-20T12:34:33;2.35;;;2.00;;
24439;SDS011;12618;54.386;18.394;2022-09-20T12:39:37;2.80;;;1.90;;
24439;SDS011;12618;54.386;18.394;2022-09-20T12:47:30;3.55;;;1.82;;
24439;SDS011;12618;54.386;18.394;2022-09-20T12:50:02;2.70;;;1.32;;
24439;SDS011;12618;54.386;18.394;2022-09-20T12:52:52;2.75;;;2.20;;
24439;SDS011;12618;54.386;18.394;2022-09-20T12:58:20;3.12;;;2.30;;
24439;SDS011;12618;54.386;18.394;2022-09-20T13:03:36;2.20;;;1.57;;
24439;SDS011;12618;54.386;18.394;2022-09-20T13:08:42;1.98;;;1.52;;
24439;SDS011;12618;54.386;18.394;2022-09-20T13:11:16;1.67;;;1.55;;
24439;SDS011;12618;54.386;18.394;2022-09-20T13:13:49;2.35;;;1.70;;
24439;SDS011;12618;54.386;18.394;2022-09-20T13:16:38;3.65;;;1.90;;
24439;SDS011;12618;54.386;18.394;2022-09-20T13:21:49;4.62;;;1.82;;
24439;SDS011;12618;54.386;18.394;2022-09-20T13:24:15;3.70;;;2.10;;
24439;SDS011;12618;54.386;18.394;2022-09-20T13:26:46;2.58;;;2.00;;
24439;SDS011;12618;54.386;18.394;2022-09-20T13:29:37;2.80;;;1.92;;
24439;SDS011;12618;54.386;18.394;2022-09-20T13:31:53;3.42;;;2.00;;
24439;SDS011;12618;54.386;18.394;2022-09-20T13:34:25;19.95;;;13.45;;
24439;SDS011;12618;54.386;18.394;2022-09-20T13:36:56;7.03;;;4.15;;
24439;SDS011;12618;54.386;18.394;2022-09-20T13:39:34;2.65;;;1.77;;
24439;SDS011;12618;54.386;18.394;2022-09-20T13:42:07;3.12;;;2.35;;
24439;SDS011;12618;54.386;18.394;2022-09-20T13:44:37;2.83;;;2.47;;
24439;SDS011;12618;54.386;18.394;2022-09-20T13:47:21;5.62;;;4.30;;
24439;SDS011;12618;54.386;18.394;2022-09-20T13:49:57;2.72;;;2.35;;
24439;SDS011;12618;54.386;18.394;2022-09-20T13:52:26;6.33;;;4.67;;
24439;SDS011;12618;54.386;18.394;2022-09-20T13:55:17;3.30;;;2.95;;
24439;SDS011;12618;54.386;18.394;2022-09-20T13:57:31;3.58;;;2.12;;
24439;SDS011;12618;54.386;18.394;2022-09-20T14:00:03;4.30;;;2.90;;
24439;SDS011;12618;54.386;18.394;2022-09-20T14:02:35;3.85;;;2.47;;
24439;SDS011;12618;54.386;18.394;2022-09-20T14:05:06;2.25;;;2.05;;
24439;SDS011;12618;54.386;18.394;2022-09-20T14:07:38;2.83;;;1.82;;
24439;SDS011;12618;54.386;18.394;2022-09-20T14:10:31;2.50;;;1.77;;
24439;SDS011;12618;54.386;18.394;2022-09-20T14:13:04;3.83;;;2.30;;
24439;SDS011;12618;54.386;18.394;2022-09-20T14:15:40;3.77;;;2.60;;
24439;SDS011;12618;54.386;18.394;2022-09-20T14:18:13;2.58;;;2.35;;
24439;SDS011;12618;54.386;18.394;2022-09-20T14:20:44;5.00;;;4.28;;
24439;SDS011;12618;54.386;18.394;2022-09-20T14:23:19;3.90;;;2.17;;
24439;SDS011;12618;54.386;18.394;2022-09-20T14:28:37;7.03;;;5.53;;
24439;SDS011;12618;54.386;18.394;2022-09-20T14:31:11;6.80;;;5.00;;
24439;SDS011;12618;54.386;18.394;2022-09-20T14:33:41;4.65;;;3.80;;
24439;SDS011;12618;54.386;18.394;2022-09-20T14:36:19;4.67;;;3.27;;
24439;SDS011;12618;54.386;18.394;2022-09-20T14:38:54;4.08;;;3.67;;
24439;SDS011;12618;54.386;18.394;2022-09-20T14:41:32;5.72;;;3.27;;
24439;SDS011;12618;54.386;18.394;2022-09-20T14:44:04;6.17;;;5.40;;
24439;SDS011;12618;54.386;18.394;2022-09-20T14:46:35;5.33;;;4.50;;
24439;SDS011;12618;54.386;18.394;2022-09-20T14:52:40;1.45;;;1.35;;
24439;SDS011;12618;54.386;18.394;2022-09-20T14:54:28;1.42;;;1.32;;
24439;SDS011;12618;54.386;18.394;2022-09-20T14:56:59;1.75;;;1.32;;
24439;SDS011;12618;54.386;18.394;2022-09-20T14:59:37;2.62;;;1.60;;
24439;SDS011;12618;54.386;18.394;2022-09-20T15:02:14;2.62;;;1.62;;
24439;SDS011;12618;54.386;18.394;2022-09-20T15:04:52;6.30;;;3.95;;
24439;SDS011;12618;54.386;18.394;2022-09-20T15:07:23;4.00;;;3.00;;
24439;SDS011;12618;54.386;18.394;2022-09-20T15:09:54;3.30;;;2.30;;
24439;SDS011;12618;54.386;18.394;2022-09-20T15:12:24;9.23;;;4.95;;
24439;SDS011;12618;54.386;18.394;2022-09-20T15:14:59;8.78;;;6.50;;
24439;SDS011;12618;54.386;18.394;2022-09-20T15:17:27;4.72;;;2.90;;
24439;SDS011;12618;54.386;18.394;2022-09-20T15:19:57;5.10;;;4.60;;
24439;SDS011;12618;54.386;18.394;2022-09-20T15:22:28;5.65;;;4.80;;
24439;SDS011;12618;54.386;18.394;2022-09-20T15:24:59;4.50;;;3.50;;
24439;SDS011;12618;54.386;18.394;2022-09-20T15:27:29;2.40;;;2.20;;
24439;SDS011;12618;54.386;18.394;2022-09-20T15:30:00;2.65;;;2.45;;
24439;SDS011;12618;54.386;18.394;2022-09-20T15:32:30;4.45;;;2.98;;
24439;SDS011;12618;54.386;18.394;2022-09-20T15:35:01;4.95;;;3.20;;
24439;SDS011;12618;54.386;18.394;2022-09-20T15:37:31;6.83;;;5.85;;
24439;SDS011;12618;54.386;18.394;2022-09-20T15:40:03;5.28;;;3.65;;
24439;SDS011;12618;54.386;18.394;2022-09-20T15:42:34;4.42;;;4.00;;
24439;SDS011;12618;54.386;18.394;2022-09-20T15:45:08;5.35;;;3.75;;
24439;SDS011;12618;54.386;18.394;2022-09-20T15:47:39;3.65;;;2.77;;
24439;SDS011;12618;54.386;18.394;2022-09-20T15:50:09;4.85;;;3.67;;
24439;SDS011;12618;54.386;18.394;2022-09-20T15:52:40;5.75;;;4.00;;
24439;SDS011;12618;54.386;18.394;2022-09-20T15:55:11;7.03;;;4.10;;
24439;SDS011;12618;54.386;18.394;2022-09-20T15:57:42;4.42;;;3.47;;
24439;SDS011;12618;54.386;18.394;2022-09-20T16:00:13;10.85;;;8.30;;
24439;SDS011;12618;54.386;18.394;2022-09-20T16:02:49;12.90;;;8.35;;
24439;SDS011;12618;54.386;18.394;2022-09-20T16:05:19;9.73;;;6.20;;
24439;SDS011;12618;54.386;18.394;2022-09-20T16:07:50;6.53;;;3.80;;
24439;SDS011;12618;54.386;18.394;2022-09-20T16:10:20;6.83;;;3.52;;
24439;SDS011;12618;54.386;18.394;2022-09-20T16:12:51;5.42;;;2.80;;
24439;SDS011;12618;54.386;18.394;2022-09-20T16:15:21;5.17;;;3.12;;
24439;SDS011;12618;54.386;18.394;2022-09-20T16:17:52;4.15;;;3.20;;
24439;SDS011;12618;54.386;18.394;2022-09-20T16:20:40;7.00;;;4.22;;
24439;SDS011;12618;54.386;18.394;2022-09-20T16:23:12;6.45;;;4.12;;
24439;SDS011;12618;54.386;18.394;2022-09-20T16:25:42;7.42;;;4.55;;
24439;SDS011;12618;54.386;18.394;2022-09-20T16:28:13;8.55;;;5.80;;
24439;SDS011;12618;54.386;18.394;2022-09-20T16:30:43;8.18;;;6.08;;
24439;SDS011;12618;54.386;18.394;2022-09-20T16:33:14;9.20;;;5.58;;
24439;SDS011;12618;54.386;18.394;2022-09-20T16:35:44;7.25;;;4.50;;
24439;SDS011;12618;54.386;18.394;2022-09-20T16:38:15;8.15;;;4.55;;
24439;SDS011;12618;54.386;18.394;2022-09-20T16:40:49;6.85;;;4.55;;
24439;SDS011;12618;54.386;18.394;2022-09-20T16:43:24;7.12;;;5.40;;
24439;SDS011;12618;54.386;18.394;2022-09-20T16:45:59;8.30;;;5.67;;
24439;SDS011;12618;54.386;18.394;2022-09-20T16:48:32;8.78;;;6.17;;
24439;SDS011;12618;54.386;18.394;2022-09-20T16:51:03;9.95;;;6.15;;
24439;SDS011;12618;54.386;18.394;2022-09-20T16:53:35;10.03;;;7.00;;
24439;SDS011;12618;54.386;18.394;2022-09-20T16:56:06;11.18;;;7.67;;
24439;SDS011;12618;54.386;18.394;2022-09-20T16:58:36;10.85;;;7.42;;
24439;SDS011;12618;54.386;18.394;2022-09-20T17:01:07;11.57;;;7.85;;
24439;SDS011;12618;54.386;18.394;2022-09-20T17:03:39;10.82;;;7.37;;
24439;SDS011;12618;54.386;18.394;2022-09-20T17:06:10;18.15;;;14.98;;
24439;SDS011;12618;54.386;18.394;2022-09-20T17:08:41;25.90;;;17.65;;
24439;SDS011;12618;54.386;18.394;2022-09-20T17:11:15;13.67;;;9.87;;
24439;SDS011;12618;54.386;18.394;2022-09-20T17:13:46;13.85;;;10.18;;
24439;SDS011;12618;54.386;18.394;2022-09-20T17:16:18;22.45;;;16.80;;
24439;SDS011;12618;54.386;18.394;2022-09-20T17:18:53;14.73;;;10.30;;
24439;SDS011;12618;54.386;18.394;2022-09-20T17:21:24;21.05;;;10.85;;
24439;SDS011;12618;54.386;18.394;2022-09-20T17:23:55;18.50;;;10.30;;
24439;SDS011;12618;54.386;18.394;2022-09-20T17:26:30;18.55;;;10.23;;
24439;SDS011;12618;54.386;18.394;2022-09-20T17:29:03;11.75;;;7.17;;
24439;SDS011;12618;54.386;18.394;2022-09-20T17:31:35;10.80;;;7.08;;
24439;SDS011;12618;54.386;18.394;2022-09-20T17:34:08;12.15;;;8.65;;
24439;SDS011;12618;54.386;18.394;2022-09-20T17:36:43;15.78;;;11.12;;
24439;SDS011;12618;54.386;18.394;2022-09-20T17:39:14;33.70;;;25.32;;
24439;SDS011;12618;54.386;18.394;2022-09-20T17:41:45;59.15;;;43.25;;
24439;SDS011;12618;54.386;18.394;2022-09-20T17:44:16;61.68;;;43.95;;
24439;SDS011;12618;54.386;18.394;2022-09-20T17:46:47;13.50;;;9.98;;
24439;SDS011;12618;54.386;18.394;2022-09-20T17:49:19;10.25;;;7.15;;
24439;SDS011;12618;54.386;18.394;2022-09-20T17:51:51;9.08;;;6.42;;
24439;SDS011;12618;54.386;18.394;2022-09-20T17:54:22;8.18;;;6.60;;
24439;SDS011;12618;54.386;18.394;2022-09-20T17:56:53;12.45;;;7.92;;
24439;SDS011;12618;54.386;18.394;2022-09-20T17:59:24;10.38;;;8.45;;
24439;SDS011;12618;54.386;18.394;2022-09-20T18:01:55;13.90;;;9.58;;
24439;SDS011;12618;54.386;18.394;2022-09-20T18:04:25;11.00;;;8.88;;
24439;SDS011;12618;54.386;18.394;2022-09-20T18:06:56;10.40;;;8.38;;
24439;SDS011;12618;54.386;18.394;2022-09-20T18:09:27;13.60;;;7.97;;
24439;SDS011;12618;54.386;18.394;2022-09-20T18:11:57;13.62;;;9.00;;
24439;SDS011;12618;54.386;18.394;2022-09-20T18:14:28;13.10;;;8.28;;
24439;SDS011;12618;54.386;18.394;2022-09-20T18:17:00;13.35;;;7.55;;
24439;SDS011;12618;54.386;18.394;2022-09-20T18:19:31;15.48;;;8.70;;
24439;SDS011;12618;54.386;18.394;2022-09-20T18:22:02;14.55;;;9.13;;
24439;SDS011;12618;54.386;18.394;2022-09-20T18:24:33;13.45;;;7.55;;
24439;SDS011;12618;54.386;18.394;2022-09-20T18:27:04;10.53;;;6.92;;
24439;SDS011;12618;54.386;18.394;2022-09-20T18:29:34;35.10;;;23.47;;
24439;SDS011;12618;54.386;18.394;2022-09-20T18:32:06;28.83;;;18.62;;
24439;SDS011;12618;54.386;18.394;2022-09-20T18:34:38;33.70;;;18.95;;
24439;SDS011;12618;54.386;18.394;2022-09-20T18:37:08;15.30;;;10.65;;
24439;SDS011;12618;54.386;18.394;2022-09-20T18:39:39;12.25;;;8.70;;
24439;SDS011;12618;54.386;18.394;2022-09-20T18:42:09;12.35;;;7.92;;
24439;SDS011;12618;54.386;18.394;2022-09-20T18:44:40;12.60;;;9.13;;
24439;SDS011;12618;54.386;18.394;2022-09-20T18:47:13;15.35;;;10.80;;
24439;SDS011;12618;54.386;18.394;2022-09-20T18:49:43;15.03;;;10.10;;
24439;SDS011;12618;54.386;18.394;2022-09-20T18:52:14;14.90;;;8.88;;
24439;SDS011;12618;54.386;18.394;2022-09-20T18:54:46;12.18;;;8.88;;
24439;SDS011;12618;54.386;18.394;2022-09-20T18:57:17;15.38;;;10.48;;
24439;SDS011;12618;54.386;18.394;2022-09-20T18:59:49;14.30;;;8.73;;
24439;SDS011;12618;54.386;18.394;2022-09-20T19:10:10;10.53;;;7.92;;
24439;SDS011;12618;54.386;18.394;2022-09-20T19:15:24;24.30;;;11.08;;
24439;SDS011;12618;54.386;18.394;2022-09-20T19:25:39;11.28;;;6.45;;
24439;SDS011;12618;54.386;18.394;2022-09-20T19:28:12;14.60;;;8.15;;
24439;SDS011;12618;54.386;18.394;2022-09-20T19:30:43;11.55;;;6.72;;
24439;SDS011;12618;54.386;18.394;2022-09-20T19:33:16;18.77;;;13.08;;
24439;SDS011;12618;54.386;18.394;2022-09-20T19:35:48;36.15;;;21.75;;
24439;SDS011;12618;54.386;18.394;2022-09-20T19:38:40;31.73;;;14.40;;
24439;SDS011;12618;54.386;18.394;2022-09-20T19:46:17;10.50;;;6.65;;
24439;SDS011;12618;54.386;18.394;2022-09-20T19:48:46;10.15;;;6.65;;
24439;SDS011;12618;54.386;18.394;2022-09-20T19:51:17;8.95;;;5.87;;
24439;SDS011;12618;54.386;18.394;2022-09-20T19:53:49;10.70;;;6.28;;
24439;SDS011;12618;54.386;18.394;2022-09-20T19:56:25;13.93;;;10.23;;
24439;SDS011;12618;54.386;18.394;2022-09-20T19:58:52;20.88;;;14.23;;
24439;SDS011;12618;54.386;18.394;2022-09-20T20:01:25;20.88;;;9.58;;
24439;SDS011;12618;54.386;18.394;2022-09-20T20:03:56;11.85;;;6.25;;
24439;SDS011;12618;54.386;18.394;2022-09-20T20:09:14;9.40;;;4.70;;
24439;SDS011;12618;54.386;18.394;2022-09-20T20:24:58;20.62;;;8.28;;
24439;SDS011;12618;54.386;18.394;2022-09-20T20:27:29;15.40;;;6.55;;